Time;durP1;ratioP1;P1;durP2;ratioP2;P2;SDS_P1;SDS_P2;PMS_P1;PMS_P2;Temp;Humidity;BMP_temperature;BMP_pressure;BME280_temperature;BME280_humidity;BME280_pressure;Samples;Min_cycle;Max_cycle;Signal;HPM_P1;HPM_P2
2023/08/12 00:02:11;;;;;;;19.05;17.02;;;;;;;;;;5135790;27;20393;-60
2023/08/12 00:04:38;;;;;;;19.83;17.73;;;;;;;;;;5135703;27;20055;-60
2023/08/12 00:07:05;;;;;;;21.30;19.10;;;;;;;;;;5135161;27;20058;-60
2023/08/12 00:09:31;;;;;;;21.17;19.00;;;;;;;;;;5136241;27;20055;-59
2023/08/12 00:11:59;;;;;;;20.27;18.23;;;;;;;;;;5135667;27;20047;-61
2023/08/12 00:14:27;;;;;;;22.17;19.83;;;;;;;;;;5135785;27;20387;-60
2023/08/12 00:16:54;;;;;;;19.63;17.42;;;;;;;;;;5135895;27;20054;-60
2023/08/12 00:19:21;;;;;;;20.25;18.25;;;;;;;;;;5135771;27;20058;-60
2023/08/12 00:21:48;;;;;;;18.95;17.05;;;;;;;;;;5135374;27;20059;-60
2023/08/12 00:24:14;;;;;;;15.98;13.73;;;;;;;;;;5135568;27;20047;-60
2023/08/12 00:26:41;;;;;;;18.50;16.48;;;;;;;;;;5135945;27;20051;-59
2023/08/12 00:29:08;;;;;;;15.15;13.63;;;;;;;;;;5135679;27;20051;-59
2023/08/12 00:31:36;;;;;;;15.10;13.60;;;;;;;;;;5135694;27;20051;-60
2023/08/12 00:34:03;;;;;;;15.82;14.18;;;;;;;;;;5135077;27;20058;-60
2023/08/12 00:36:30;;;;;;;15.80;13.85;;;;;;;;;;5135497;27;20055;-59
2023/08/12 00:38:57;;;;;;;18.67;16.77;;;;;;;;;;5134866;27;20051;-60
2023/08/12 00:41:23;;;;;;;21.17;18.67;;;;;;;;;;5135601;27;20051;-60
2023/08/12 00:43:50;;;;;;;16.55;14.95;;;;;;;;;;5135620;27;20051;-60
2023/08/12 00:46:17;;;;;;;16.52;14.77;;;;;;;;;;5135279;27;20467;-59
2023/08/12 00:48:45;;;;;;;19.40;17.38;;;;;;;;;;5135136;27;20055;-59
2023/08/12 00:51:12;;;;;;;16.90;15.20;;;;;;;;;;5135224;27;20054;-59
2023/08/12 00:53:39;;;;;;;18.42;16.52;;;;;;;;;;5135037;27;20062;-60
2023/08/12 00:56:06;;;;;;;17.10;15.40;;;;;;;;;;5134734;27;20058;-60
2023/08/12 00:58:33;;;;;;;21.35;18.98;;;;;;;;;;5134910;27;20503;-60
2023/08/12 01:01:00;;;;;;;15.68;14.18;;;;;;;;;;5135028;27;20047;-59
2023/08/12 01:03:27;;;;;;;17.70;15.70;;;;;;;;;;5134659;27;20353;-59
2023/08/12 01:05:55;;;;;;;19.80;16.30;;;;;;;;;;5134620;27;20047;-59
2023/08/12 01:08:23;;;;;;;18.38;16.02;;;;;;;;;;5135019;27;20058;-59
2023/08/12 01:10:52;;;;;;;23.17;20.83;;;;;;;;;;5134596;27;20480;-59
2023/08/12 01:13:24;;;;;;;23.65;21.25;;;;;;;;;;5134491;27;20055;-59
2023/08/12 01:15:53;;;;;;;20.67;18.58;;;;;;;;;;5134343;27;20047;-60
2023/08/12 01:18:21;;;;;;;22.33;19.48;;;;;;;;;;5134138;27;20047;-59
2023/08/12 01:20:48;;;;;;;19.42;17.48;;;;;;;;;;5134220;27;20492;-60
2023/08/12 01:23:16;;;;;;;18.67;16.65;;;;;;;;;;5134252;27;20046;-59
2023/08/12 01:25:43;;;;;;;19.25;17.33;;;;;;;;;;5134234;27;20412;-59
2023/08/12 01:28:10;;;;;;;20.80;18.52;;;;;;;;;;5134294;27;20047;-59
2023/08/12 01:30:40;;;;;;;24.60;22.02;;;;;;;;;;5134821;27;20046;-59
2023/08/12 01:33:11;;;;;;;26.63;23.65;;;;;;;;;;5133965;27;20055;-59
2023/08/12 01:35:40;;;;;;;25.73;22.88;;;;;;;;;;5134398;27;20047;-61
2023/08/12 01:38:09;;;;;;;25.15;22.50;;;;;;;;;;5133786;27;20059;-59
2023/08/12 01:40:39;;;;;;;25.70;22.45;;;;;;;;;;5133921;27;20058;-59
2023/08/12 01:43:07;;;;;;;26.50;23.70;;;;;;;;;;5134027;27;20054;-60
2023/08/12 01:45:34;;;;;;;28.88;25.50;;;;;;;;;;5134139;27;20054;-59
2023/08/12 01:48:01;;;;;;;27.20;24.35;;;;;;;;;;5133471;27;20074;-60
2023/08/12 01:50:27;;;;;;;27.98;24.83;;;;;;;;;;5133654;27;20047;-60
2023/08/12 01:52:54;;;;;;;29.13;26.02;;;;;;;;;;5134279;27;20058;-60
2023/08/12 01:55:21;;;;;;;28.48;25.27;;;;;;;;;;5133736;27;20050;-60
2023/08/12 01:57:49;;;;;;;30.50;27.20;;;;;;;;;;5133654;27;20051;-60
2023/08/12 02:00:16;;;;;;;33.90;29.00;;;;;;;;;;5133495;27;20442;-60
2023/08/12 02:02:45;;;;;;;28.60;25.70;;;;;;;;;;5133717;27;20058;-60
2023/08/12 02:05:12;;;;;;;;;;;;;;;;;;5134438;27;20055;-60
2023/08/12 02:07:39;;;;;;;28.88;25.42;;;;;;;;;;5133857;27;19923;-61
2023/08/12 02:10:06;;;;;;;29.10;25.95;;;;;;;;;;5134072;27;20472;-60
2023/08/12 02:12:33;;;;;;;29.17;25.52;;;;;;;;;;5134018;27;20058;-60
2023/08/12 02:15:01;;;;;;;25.35;22.55;;;;;;;;;;5133936;27;20498;-61
2023/08/12 02:17:28;;;;;;;34.17;27.63;;;;;;;;;;5133590;27;20054;-61
2023/08/12 02:19:54;;;;;;;33.20;29.60;;;;;;;;;;5133933;27;20409;-61
2023/08/12 02:22:22;;;;;;;21.88;19.58;;;;;;;;;;5133854;27;20054;-60
2023/08/12 02:24:49;;;;;;;28.08;24.90;;;;;;;;;;5133828;27;20054;-60
2023/08/12 02:27:16;;;;;;;20.02;17.77;;;;;;;;;;5133701;27;20090;-60
2023/08/12 02:29:43;;;;;;;20.15;17.40;;;;;;;;;;5133518;27;20050;-60
2023/08/12 02:32:11;;;;;;;18.98;16.98;;;;;;;;;;5133304;27;20051;-60
2023/08/12 02:34:38;;;;;;;27.65;24.58;;;;;;;;;;5133113;27;20043;-60
2023/08/12 02:37:05;;;;;;;19.02;16.38;;;;;;;;;;5132977;28;20047;-60
2023/08/12 02:39:31;;;;;;;18.02;16.27;;;;;;;;;;5133128;28;20058;-60
2023/08/12 02:41:58;;;;;;;17.10;15.40;;;;;;;;;;5132919;28;20055;-60
2023/08/12 02:44:24;;;;;;;16.23;14.57;;;;;;;;;;5133462;28;20055;-60
2023/08/12 02:46:51;;;;;;;16.33;14.80;;;;;;;;;;5133123;28;20054;-60
2023/08/12 02:49:19;;;;;;;15.73;14.23;;;;;;;;;;5133700;28;20062;-60
2023/08/12 02:51:46;;;;;;;13.25;11.90;;;;;;;;;;5133424;28;20065;-60
2023/08/12 02:54:12;;;;;;;15.18;13.77;;;;;;;;;;5133093;28;20055;-60
2023/08/12 02:56:39;;;;;;;14.77;13.38;;;;;;;;;;5133287;28;20039;-60
2023/08/12 02:59:06;;;;;;;14.20;12.68;;;;;;;;;;5133213;28;20396;-60
2023/08/12 03:01:33;;;;;;;14.13;12.63;;;;;;;;;;5132936;28;20047;-60
2023/08/12 03:04:00;;;;;;;12.68;11.40;;;;;;;;;;5133219;28;20067;-60
2023/08/12 03:06:28;;;;;;;13.48;12.18;;;;;;;;;;5133253;28;20051;-60
2023/08/12 03:08:55;;;;;;;11.02;10.02;;;;;;;;;;5132734;28;20058;-60
2023/08/12 03:11:22;;;;;;;10.68;9.60;;;;;;;;;;5133253;28;20047;-60
2023/08/12 03:13:49;;;;;;;11.50;10.35;;;;;;;;;;5133027;28;20043;-60
2023/08/12 03:16:15;;;;;;;12.68;11.40;;;;;;;;;;5132642;28;20051;-60
2023/08/12 03:18:42;;;;;;;13.15;11.90;;;;;;;;;;5132981;28;20498;-60
2023/08/12 03:21:10;;;;;;;11.35;10.35;;;;;;;;;;5133074;28;20050;-60
2023/08/12 03:23:38;;;;;;;11.23;10.23;;;;;;;;;;5133447;28;20468;-60
2023/08/12 03:26:05;;;;;;;12.45;11.15;;;;;;;;;;5133083;28;20047;-61
2023/08/12 03:28:32;;;;;;;11.77;10.68;;;;;;;;;;5116900;28;20043;-60
2023/08/12 03:30:58;;;;;;;17.38;15.68;;;;;;;;;;5112147;28;20055;-60
2023/08/12 03:33:25;;;;;;;14.73;13.32;;;;;;;;;;5111772;28;20078;-61
2023/08/12 03:35:52;;;;;;;16.55;14.95;;;;;;;;;;5112101;28;20055;-60
2023/08/12 03:38:19;;;;;;;13.75;12.48;;;;;;;;;;5112215;28;20051;-60
2023/08/12 03:40:47;;;;;;;19.02;17.15;;;;;;;;;;5112262;28;20074;-60
2023/08/12 03:43:17;;;;;;;19.80;17.88;;;;;;;;;;5114241;28;20066;-61
2023/08/12 03:45:44;;;;;;;19.05;17.23;;;;;;;;;;5116252;28;20047;-60
2023/08/12 03:48:11;;;;;;;18.45;16.52;;;;;;;;;;5116050;28;20353;-60
2023/08/12 03:50:38;;;;;;;13.35;12.15;;;;;;;;;;5115871;28;20055;-61
2023/08/12 03:53:05;;;;;;;14.75;13.35;;;;;;;;;;5115972;28;20058;-60
2023/08/12 03:55:32;;;;;;;19.38;17.58;;;;;;;;;;5115576;28;20055;-60
2023/08/12 03:58:01;;;;;;;16.95;15.35;;;;;;;;;;5115829;28;20052;-60
2023/08/12 04:00:28;;;;;;;18.00;16.15;;;;;;;;;;5115886;28;20063;-61
2023/08/12 04:02:54;;;;;;;18.75;16.83;;;;;;;;;;5115920;28;20070;-60
2023/08/12 04:05:21;;;;;;;12.43;11.20;;;;;;;;;;5115630;28;20396;-60
2023/08/12 04:07:48;;;;;;;14.27;12.75;;;;;;;;;;5115728;28;20047;-61
2023/08/12 04:10:15;;;;;;;11.25;10.10;;;;;;;;;;5116063;28;20055;-60
2023/08/12 04:12:42;;;;;;;14.30;12.48;;;;;;;;;;5115574;28;20048;-60
2023/08/12 04:15:11;;;;;;;17.35;15.55;;;;;;;;;;5115703;28;20051;-60
2023/08/12 04:17:39;;;;;;;15.07;13.57;;;;;;;;;;5115748;28;20056;-60
2023/08/12 04:20:07;;;;;;;14.57;13.18;;;;;;;;;;5115764;28;20051;-60
2023/08/12 04:22:34;;;;;;;13.52;12.05;;;;;;;;;;5115170;28;20056;-60
2023/08/12 04:25:00;;;;;;;14.25;12.75;;;;;;;;;;5115583;28;20048;-60
2023/08/12 04:27:27;;;;;;;18.35;16.63;;;;;;;;;;5115077;28;20055;-60
2023/08/12 04:29:54;;;;;;;18.20;16.50;;;;;;;;;;5115476;28;20047;-60
2023/08/12 04:32:22;;;;;;;20.17;18.20;;;;;;;;;;5114937;28;20415;-59
2023/08/12 04:34:49;;;;;;;23.80;21.30;;;;;;;;;;5114496;28;20055;-61
2023/08/12 04:37:17;;;;;;;19.63;17.67;;;;;;;;;;5123453;27;20047;-60
2023/08/12 04:39:44;;;;;;;17.15;15.35;;;;;;;;;;5135479;27;20500;-60
2023/08/12 04:42:11;;;;;;;15.18;13.60;;;;;;;;;;5134976;27;20051;-60
2023/08/12 04:44:38;;;;;;;16.60;14.02;;;;;;;;;;5120208;27;20055;-60
2023/08/12 04:47:05;;;;;;;22.17;20.08;;;;;;;;;;5115136;28;20069;-60
2023/08/12 04:49:33;;;;;;;19.42;17.60;;;;;;;;;;5114692;28;20056;-60
2023/08/12 04:52:00;;;;;;;15.07;13.65;;;;;;;;;;5114806;28;20388;-61
2023/08/12 04:54:27;;;;;;;14.23;12.82;;;;;;;;;;5114840;28;20047;-60
2023/08/12 04:56:53;;;;;;;15.13;13.68;;;;;;;;;;5114156;28;20040;-60
2023/08/12 04:59:20;;;;;;;17.58;15.85;;;;;;;;;;5114823;28;20134;-60
2023/08/12 05:01:47;;;;;;;17.27;14.40;;;;;;;;;;5114026;28;20055;-60
2023/08/12 05:04:14;;;;;;;15.82;14.32;;;;;;;;;;5114327;28;20048;-60
2023/08/12 05:06:42;;;;;;;19.42;17.73;;;;;;;;;;5113654;28;20047;-60
2023/08/12 05:09:09;;;;;;;16.52;14.93;;;;;;;;;;5114175;28;20052;-60
2023/08/12 05:11:36;;;;;;;15.23;13.55;;;;;;;;;;5114177;28;20485;-60
2023/08/12 05:14:02;;;;;;;11.32;10.27;;;;;;;;;;5113746;28;20419;-60
2023/08/12 05:16:29;;;;;;;12.70;10.20;;;;;;;;;;5114226;28;20047;-60
2023/08/12 05:18:56;;;;;;;12.20;10.90;;;;;;;;;;5114029;28;20062;-61
2023/08/12 05:21:23;;;;;;;10.88;9.85;;;;;;;;;;5113792;28;20047;-60
2023/08/12 05:23:51;;;;;;;12.38;11.23;;;;;;;;;;5113346;28;20055;-61
2023/08/12 05:26:20;;;;;;;11.20;10.20;;;;;;;;;;5113552;28;20044;-60
2023/08/12 05:28:46;;;;;;;10.60;9.50;;;;;;;;;;5113212;28;20058;-60
2023/08/12 05:31:13;;;;;;;14.95;13.55;;;;;;;;;;5113370;28;20055;-60
2023/08/12 05:33:40;;;;;;;15.70;14.18;;;;;;;;;;5113317;28;20151;-60
2023/08/12 05:36:07;;;;;;;21.33;18.58;;;;;;;;;;5132610;27;20054;-60
2023/08/12 05:38:34;;;;;;;17.23;15.50;;;;;;;;;;5133744;27;20051;-60
2023/08/12 05:41:03;;;;;;;16.30;14.57;;;;;;;;;;5133873;27;20051;-60
2023/08/12 05:43:30;;;;;;;19.73;17.88;;;;;;;;;;5133602;27;20051;-60
2023/08/12 05:45:57;;;;;;;23.05;20.95;;;;;;;;;;5133492;27;20050;-60
2023/08/12 05:48:24;;;;;;;16.35;14.68;;;;;;;;;;5133878;27;20396;-60
2023/08/12 05:50:51;;;;;;;13.50;12.13;;;;;;;;;;5134041;27;20058;-60
2023/08/12 05:53:17;;;;;;;13.90;12.48;;;;;;;;;;5133777;27;20059;-60
2023/08/12 05:55:44;;;;;;;13.40;12.07;;;;;;;;;;5133726;27;20047;-60
2023/08/12 05:58:12;;;;;;;18.20;16.50;;;;;;;;;;5133784;27;20047;-60
2023/08/12 06:00:39;;;;;;;13.15;11.77;;;;;;;;;;5133703;27;20051;-60
2023/08/12 06:03:06;;;;;;;11.10;10.00;;;;;;;;;;5133264;27;20054;-61
2023/08/12 06:05:33;;;;;;;11.68;10.57;;;;;;;;;;5133613;27;20063;-60
2023/08/12 06:07:59;;;;;;;9.23;8.32;;;;;;;;;;5133418;27;20044;-60
2023/08/12 06:10:26;;;;;;;8.40;7.57;;;;;;;;;;5133628;27;20503;-60
2023/08/12 06:12:53;;;;;;;9.20;8.30;;;;;;;;;;5133044;27;20059;-59
2023/08/12 06:15:21;;;;;;;8.07;6.10;;;;;;;;;;5133081;27;20058;-60
2023/08/12 06:17:48;;;;;;;8.75;7.65;;;;;;;;;;5132897;27;20054;-60
2023/08/12 06:20:15;;;;;;;8.48;5.97;;;;;;;;;;5133382;27;20479;-60
2023/08/12 06:22:42;;;;;;;7.88;6.22;;;;;;;;;;5132965;27;20051;-60
2023/08/12 06:25:09;;;;;;;7.28;6.57;;;;;;;;;;5133421;27;20051;-60
2023/08/12 06:27:36;;;;;;;8.52;7.72;;;;;;;;;;5133440;27;20058;-61
2023/08/12 06:30:03;;;;;;;5.75;4.88;;;;;;;;;;5133327;27;20055;-60
2023/08/12 06:32:31;;;;;;;8.20;6.20;;;;;;;;;;5133058;27;20047;-60
2023/08/12 06:35:00;;;;;;;6.85;6.15;;;;;;;;;;5124320;27;20055;-60
2023/08/12 06:37:27;;;;;;;;;;;;;;;;;;5133559;28;20051;-60
2023/08/12 06:39:53;;;;;;;5.70;4.57;;;;;;;;;;5132891;28;19919;-60
2023/08/12 06:42:20;;;;;;;7.10;4.43;;;;;;;;;;5133366;28;20055;-61
2023/08/12 06:44:51;;;;;;;4.78;3.60;;;;;;;;;;5133310;28;20154;-60
2023/08/12 06:47:17;;;;;;;4.38;3.20;;;;;;;;;;5132825;28;20415;-60
2023/08/12 06:49:46;;;;;;;5.78;3.30;;;;;;;;;;5132803;28;20055;-60
2023/08/12 06:52:13;;;;;;;5.93;3.70;;;;;;;;;;5132612;28;20058;-61
2023/08/12 06:54:39;;;;;;;4.75;3.00;;;;;;;;;;5133171;28;20051;-60
2023/08/12 06:57:06;;;;;;;6.45;4.07;;;;;;;;;;5132885;28;20047;-61
2023/08/12 06:59:33;;;;;;;4.50;3.35;;;;;;;;;;5132960;28;20066;-60
2023/08/12 07:02:00;;;;;;;6.15;3.72;;;;;;;;;;5132524;28;20051;-60
2023/08/12 07:04:26;;;;;;;9.23;3.13;;;;;;;;;;5133196;28;20055;-60
2023/08/12 07:06:55;;;;;;;21.92;4.40;;;;;;;;;;5132424;28;20480;-60
2023/08/12 07:09:21;;;;;;;9.90;4.85;;;;;;;;;;5133099;28;20051;-61
2023/08/12 07:11:48;;;;;;;11.80;5.40;;;;;;;;;;5132351;28;20052;-61
2023/08/12 07:14:15;;;;;;;7.63;5.47;;;;;;;;;;5132763;28;20051;-61
2023/08/12 07:16:42;;;;;;;8.20;6.47;;;;;;;;;;5132482;27;20051;-60
2023/08/12 07:19:09;;;;;;;6.95;5.50;;;;;;;;;;5136665;27;20066;-61
2023/08/12 07:21:35;;;;;;;6.43;5.50;;;;;;;;;;5136375;27;20051;-61
2023/08/12 07:24:04;;;;;;;8.70;7.00;;;;;;;;;;5136543;27;20078;-61
2023/08/12 07:26:31;;;;;;;10.50;6.00;;;;;;;;;;5136923;27;20051;-61
2023/08/12 07:28:58;;;;;;;9.75;6.68;;;;;;;;;;5136544;27;20480;-61
2023/08/12 07:31:25;;;;;;;7.88;6.93;;;;;;;;;;5136118;27;20051;-61
2023/08/12 07:33:51;;;;;;;11.38;8.80;;;;;;;;;;5136075;27;20058;-61
2023/08/12 07:36:18;;;;;;;6.70;4.95;;;;;;;;;;5135731;27;20464;-61
2023/08/12 07:38:45;;;;;;;10.13;7.93;;;;;;;;;;5135724;27;20043;-61
2023/08/12 07:41:13;;;;;;;5.85;4.80;;;;;;;;;;5135637;27;20073;-61
2023/08/12 07:43:40;;;;;;;6.68;6.00;;;;;;;;;;5136041;27;20051;-61
2023/08/12 07:46:07;;;;;;;7.13;6.03;;;;;;;;;;5136232;27;20356;-61
2023/08/12 07:48:34;;;;;;;6.18;4.47;;;;;;;;;;5136090;27;20055;-61
2023/08/12 07:51:00;;;;;;;6.57;5.50;;;;;;;;;;5136303;27;20073;-61
2023/08/12 07:53:27;;;;;;;6.72;4.82;;;;;;;;;;5136604;27;20055;-61
2023/08/12 07:55:54;;;;;;;5.45;4.85;;;;;;;;;;5135931;27;20059;-61
2023/08/12 07:58:22;;;;;;;4.22;3.50;;;;;;;;;;5135905;27;20043;-61
2023/08/12 08:00:49;;;;;;;4.40;3.60;;;;;;;;;;5136138;27;20065;-61
2023/08/12 08:03:16;;;;;;;3.45;2.78;;;;;;;;;;5135939;27;20395;-61
2023/08/12 08:05:45;;;;;;;3.83;2.40;;;;;;;;;;5135760;27;20067;-61
2023/08/12 08:08:12;;;;;;;3.28;2.70;;;;;;;;;;5136072;27;20787;-61
2023/08/12 08:10:39;;;;;;;3.05;2.58;;;;;;;;;;5135873;27;20047;-61
2023/08/12 08:13:06;;;;;;;3.22;2.22;;;;;;;;;;5135882;27;20055;-62
2023/08/12 08:15:34;;;;;;;2.78;2.10;;;;;;;;;;5135629;27;20078;-61
2023/08/12 08:18:01;;;;;;;3.55;2.30;;;;;;;;;;5135381;27;20054;-61
2023/08/12 08:20:27;;;;;;;6.25;2.42;;;;;;;;;;5135394;27;20419;-61
2023/08/12 08:22:55;;;;;;;3.70;2.38;;;;;;;;;;5135282;27;20082;-61
2023/08/12 08:25:22;;;;;;;2.58;2.20;;;;;;;;;;5135782;27;20490;-60
2023/08/12 08:27:49;;;;;;;2.30;1.90;;;;;;;;;;5135247;27;20479;-61
2023/08/12 08:30:16;;;;;;;3.55;2.00;;;;;;;;;;5135231;27;20058;-61
2023/08/12 08:32:46;;;;;;;1.90;1.42;;;;;;;;;;5135108;27;20404;-61
2023/08/12 08:35:13;;;;;;;2.03;1.60;;;;;;;;;;5135239;27;20434;-61
2023/08/12 08:37:40;;;;;;;2.92;2.17;;;;;;;;;;5135391;27;20043;-61
2023/08/12 08:40:08;;;;;;;2.72;1.58;;;;;;;;;;5135683;27;20058;-62
2023/08/12 08:42:35;;;;;;;2.17;1.90;;;;;;;;;;5135323;27;20403;-61
2023/08/12 08:45:02;;;;;;;2.70;1.88;;;;;;;;;;5135594;27;20047;-61
2023/08/12 08:47:29;;;;;;;3.40;1.90;;;;;;;;;;5135376;27;20043;-61
2023/08/12 08:49:58;;;;;;;2.10;1.60;;;;;;;;;;5135299;27;20397;-60
2023/08/12 08:52:24;;;;;;;2.80;1.90;;;;;;;;;;5135163;27;20062;-60
2023/08/12 08:54:51;;;;;;;2.58;1.73;;;;;;;;;;5135188;27;20059;-60
2023/08/12 08:57:19;;;;;;;2.70;1.60;;;;;;;;;;5135258;27;20051;-61
2023/08/12 08:59:46;;;;;;;2.83;1.70;;;;;;;;;;5135149;27;20161;-61
2023/08/12 09:02:15;;;;;;;2.28;1.70;;;;;;;;;;5134464;27;20058;-61
2023/08/12 09:04:42;;;;;;;2.50;1.90;;;;;;;;;;5134992;27;20051;-61
2023/08/12 09:07:10;;;;;;;2.95;1.58;;;;;;;;;;5134728;27;20051;-61
2023/08/12 09:09:37;;;;;;;1.95;1.35;;;;;;;;;;5134831;27;20055;-61
2023/08/12 09:12:06;;;;;;;3.20;1.73;;;;;;;;;;5134744;27;20055;-61
2023/08/12 09:14:38;;;;;;;2.97;1.52;;;;;;;;;;5134552;27;20058;-61
2023/08/12 09:17:05;;;;;;;2.05;1.27;;;;;;;;;;5134058;27;20054;-60
2023/08/12 09:19:32;;;;;;;2.78;1.60;;;;;;;;;;5134671;27;20054;-61
2023/08/12 09:21:59;;;;;;;1.60;1.30;;;;;;;;;;5134243;27;20051;-61
2023/08/12 09:24:29;;;;;;;1.98;1.48;;;;;;;;;;5134069;27;20051;-60
2023/08/12 09:26:56;;;;;;;2.50;1.48;;;;;;;;;;5134278;27;20403;-61
2023/08/12 09:29:23;;;;;;;2.88;1.55;;;;;;;;;;5134253;27;20433;-61
2023/08/12 09:31:50;;;;;;;2.90;1.38;;;;;;;;;;5134232;27;20407;-60
2023/08/12 09:34:18;;;;;;;3.03;1.40;;;;;;;;;;5134000;27;20436;-60
2023/08/12 09:36:45;;;;;;;1.80;1.20;;;;;;;;;;5134270;27;20055;-60
2023/08/12 09:39:14;;;;;;;2.72;1.38;;;;;;;;;;5133628;27;20063;-60
2023/08/12 09:41:43;;;;;;;2.28;1.25;;;;;;;;;;5133568;27;20055;-60
2023/08/12 09:44:10;;;;;;;1.83;1.20;;;;;;;;;;5134421;27;20054;-60
2023/08/12 09:46:39;;;;;;;1.60;1.25;;;;;;;;;;5134145;27;20058;-60
2023/08/12 09:49:07;;;;;;;1.40;1.00;;;;;;;;;;5134132;27;20467;-61
2023/08/12 09:51:39;;;;;;;2.58;1.40;;;;;;;;;;5133973;27;20075;-60
2023/08/12 09:54:06;;;;;;;2.25;1.30;;;;;;;;;;5133409;27;20051;-60
2023/08/12 09:56:34;;;;;;;2.75;1.20;;;;;;;;;;5133812;27;20051;-60
2023/08/12 09:59:05;;;;;;;2.13;1.30;;;;;;;;;;5133421;27;20047;-61
2023/08/12 10:01:32;;;;;;;1.58;1.05;;;;;;;;;;5133971;27;20397;-59
2023/08/12 10:03:59;;;;;;;1.98;1.02;;;;;;;;;;5133757;27;20051;-61
2023/08/12 10:06:27;;;;;;;2.53;1.10;;;;;;;;;;5133483;27;20100;-60
2023/08/12 10:08:54;;;;;;;1.65;1.00;;;;;;;;;;5133709;27;20408;-60
2023/08/12 10:11:21;;;;;;;1.95;1.00;;;;;;;;;;5133628;27;20506;-59
2023/08/12 10:13:48;;;;;;;2.50;1.08;;;;;;;;;;5133098;27;20051;-59
2023/08/12 10:16:16;;;;;;;1.73;1.00;;;;;;;;;;5133473;27;20059;-59
2023/08/12 10:18:43;;;;;;;1.73;1.20;;;;;;;;;;5133046;27;20051;-59
2023/08/12 10:21:13;;;;;;;2.17;1.20;;;;;;;;;;5133323;27;20055;-60
2023/08/12 10:23:41;;;;;;;1.60;1.08;;;;;;;;;;5133056;27;20050;-59
2023/08/12 10:26:08;;;;;;;2.30;1.10;;;;;;;;;;5133304;27;20054;-60
2023/08/12 10:28:36;;;;;;;1.73;1.10;;;;;;;;;;5132980;27;20043;-59
2023/08/12 10:31:04;;;;;;;1.67;1.23;;;;;;;;;;5133218;27;20054;-60
2023/08/12 10:33:35;;;;;;;1.92;1.27;;;;;;;;;;5133001;27;20059;-60
2023/08/12 10:36:02;;;;;;;2.05;1.40;;;;;;;;;;5132786;27;20051;-60
2023/08/12 10:38:29;;;;;;;2.50;1.15;;;;;;;;;;5113651;28;20055;-60
2023/08/12 10:41:16;;;;;;;2.28;1.13;;;;;;;;;;5112566;28;20055;-60
2023/08/12 10:43:49;;;;;;;2.65;1.30;;;;;;;;;;5112816;28;20051;-59
2023/08/12 10:46:22;;;;;;;2.55;1.40;;;;;;;;;;5112557;28;20066;-59
2023/08/12 10:48:59;;;;;;;1.60;1.20;;;;;;;;;;5112445;28;20468;-60
2023/08/12 10:51:40;;;;;;;3.70;1.30;;;;;;;;;;5113536;28;20420;-60
2023/08/12 10:54:21;;;;;;;2.20;1.20;;;;;;;;;;5116212;28;20048;-60
2023/08/12 10:57:08;;;;;;;2.30;1.15;;;;;;;;;;5116731;28;20059;-60
2023/08/12 10:59:54;;;;;;;1.70;1.30;;;;;;;;;;5116056;28;20048;-59
2023/08/12 11:02:21;;;;;;;1.90;1.42;;;;;;;;;;5116169;28;20063;-59
2023/08/12 11:04:54;;;;;;;2.47;1.30;;;;;;;;;;5116330;28;20051;-59
2023/08/12 11:07:22;;;;;;;2.42;1.50;;;;;;;;;;5116489;28;20044;-60
2023/08/12 11:09:52;;;;;;;1.70;1.30;;;;;;;;;;5116358;28;20054;-61
2023/08/12 11:12:19;;;;;;;1.90;1.27;;;;;;;;;;5116377;28;20499;-60
2023/08/12 11:14:50;;;;;;;2.40;1.40;;;;;;;;;;5116354;28;20055;-60
2023/08/12 11:17:17;;;;;;;2.33;1.38;;;;;;;;;;5115827;28;20385;-60
2023/08/12 11:19:43;;;;;;;4.07;1.40;;;;;;;;;;5116326;28;20043;-61
2023/08/12 11:22:12;;;;;;;2.33;1.50;;;;;;;;;;5116489;28;20055;-60
2023/08/12 11:24:41;;;;;;;2.40;1.60;;;;;;;;;;5115553;28;20057;-60
2023/08/12 11:27:07;;;;;;;;;;;;;;;;;;5116866;28;20059;-60
2023/08/12 11:29:34;;;;;;;2.50;1.50;;;;;;;;;;5116166;28;19919;-60
2023/08/12 11:32:01;;;;;;;2.42;1.75;;;;;;;;;;5116188;28;20062;-61
2023/08/12 11:34:28;;;;;;;2.28;1.55;;;;;;;;;;5115505;28;20468;-59
2023/08/12 11:36:58;;;;;;;2.08;1.60;;;;;;;;;;5115356;28;20051;-60
2023/08/12 11:39:28;;;;;;;2.67;1.75;;;;;;;;;;5115931;28;20058;-60
2023/08/12 11:41:57;;;;;;;2.13;1.45;;;;;;;;;;5116057;28;20052;-60
2023/08/12 11:44:24;;;;;;;2.08;1.70;;;;;;;;;;5115443;28;20051;-60
2023/08/12 11:46:51;;;;;;;2.17;1.50;;;;;;;;;;5116077;28;20403;-60
2023/08/12 11:49:18;;;;;;;2.65;1.05;;;;;;;;;;5115547;28;20063;-60
2023/08/12 11:51:47;;;;;;;2.53;1.20;;;;;;;;;;5116000;28;20052;-60
2023/08/12 11:54:17;;;;;;;2.05;1.20;;;;;;;;;;5115716;28;20051;-60
2023/08/12 11:56:45;;;;;;;3.55;1.30;;;;;;;;;;5115818;28;20063;-60
2023/08/12 11:59:13;;;;;;;2.03;1.20;;;;;;;;;;5115550;28;20052;-59
2023/08/12 12:01:45;;;;;;;2.65;1.30;;;;;;;;;;5115680;28;20468;-60
2023/08/12 12:04:12;;;;;;;1.98;1.05;;;;;;;;;;5114378;28;20059;-60
2023/08/12 12:06:39;;;;;;;2.00;1.27;;;;;;;;;;5115643;28;20404;-59
2023/08/12 12:09:09;;;;;;;2.25;1.10;;;;;;;;;;5115431;27;20055;-61
2023/08/12 12:11:36;;;;;;;2.40;1.20;;;;;;;;;;5115416;28;20051;-61
2023/08/12 12:14:07;;;;;;;2.72;1.30;;;;;;;;;;5115425;28;20432;-61
2023/08/12 12:16:43;;;;;;;2.08;1.48;;;;;;;;;;5115212;28;20051;-61
2023/08/12 12:19:10;;;;;;;17.45;3.20;;;;;;;;;;5115266;28;20400;-62
2023/08/12 12:21:42;;;;;;;10.43;2.97;;;;;;;;;;5115428;28;20051;-62
2023/08/12 12:24:09;;;;;;;6.47;5.88;;;;;;;;;;5114916;28;20066;-61
2023/08/12 12:26:36;;;;;;;8.13;6.55;;;;;;;;;;5115242;28;20061;-61
2023/08/12 12:29:05;;;;;;;7.65;5.10;;;;;;;;;;5114860;27;20052;-61
2023/08/12 12:31:32;;;;;;;6.22;5.63;;;;;;;;;;5114842;28;20052;-62
2023/08/12 12:34:03;;;;;;;7.32;6.32;;;;;;;;;;5123219;27;20415;-61
2023/08/12 12:36:30;;;;;;;7.97;6.65;;;;;;;;;;5134876;27;20054;-61
2023/08/12 12:38:57;;;;;;;8.93;7.13;;;;;;;;;;5135489;27;20047;-61
2023/08/12 12:41:23;;;;;;;7.57;5.15;;;;;;;;;;5135365;27;20050;-62
2023/08/12 12:43:50;;;;;;;10.38;9.32;;;;;;;;;;5134765;27;20062;-62
2023/08/12 12:46:18;;;;;;;6.68;5.82;;;;;;;;;;5135156;27;20054;-62
2023/08/12 12:48:45;;;;;;;11.15;6.22;;;;;;;;;;5134946;27;20055;-62
2023/08/12 12:51:12;;;;;;;5.28;4.68;;;;;;;;;;5135064;27;20051;-62
2023/08/12 12:53:39;;;;;;;6.30;4.32;;;;;;;;;;5135082;27;20055;-63
2023/08/12 12:56:06;;;;;;;4.25;3.30;;;;;;;;;;5134905;27;20058;-62
2023/08/12 12:58:33;;;;;;;5.18;4.68;;;;;;;;;;5134830;27;20484;-62
2023/08/12 13:01:00;;;;;;;5.28;3.65;;;;;;;;;;5134713;27;20047;-62
2023/08/12 13:03:28;;;;;;;5.03;3.83;;;;;;;;;;5134599;27;20051;-63
2023/08/12 13:05:55;;;;;;;3.80;2.40;;;;;;;;;;5134541;27;20055;-62
2023/08/12 13:08:24;;;;;;;3.15;2.35;;;;;;;;;;5134651;27;20051;-62
2023/08/12 13:10:51;;;;;;;3.08;2.78;;;;;;;;;;5134322;27;20068;-62
2023/08/12 13:13:18;;;;;;;2.13;1.70;;;;;;;;;;5134552;27;20055;-61
2023/08/12 13:15:46;;;;;;;2.28;1.60;;;;;;;;;;5133307;27;20047;-62
2023/08/12 13:18:13;;;;;;;1.98;1.20;;;;;;;;;;5134486;27;20399;-61
2023/08/12 13:20:42;;;;;;;1.60;1.15;;;;;;;;;;5134291;27;20047;-62
2023/08/12 13:23:09;;;;;;;2.40;1.23;;;;;;;;;;5134339;27;20059;-62
2023/08/12 13:25:36;;;;;;;1.85;1.10;;;;;;;;;;5134302;27;20064;-61
2023/08/12 13:28:04;;;;;;;2.10;1.10;;;;;;;;;;5134240;27;20386;-61
2023/08/12 13:30:31;;;;;;;1.67;0.80;;;;;;;;;;5134446;27;20051;-61
2023/08/12 13:33:00;;;;;;;2.28;0.85;;;;;;;;;;5134040;27;20062;-62
2023/08/12 13:35:27;;;;;;;3.10;1.02;;;;;;;;;;5134233;27;20082;-62
2023/08/12 13:37:55;;;;;;;3.55;1.10;;;;;;;;;;5133413;27;20058;-61
2023/08/12 13:40:22;;;;;;;1.95;1.00;;;;;;;;;;5133747;27;20054;-60
2023/08/12 13:43:06;;;;;;;1.80;1.13;;;;;;;;;;5133903;27;20395;-61
2023/08/12 13:45:33;;;;;;;1.73;0.93;;;;;;;;;;5133428;27;20609;-60
2023/08/12 13:48:00;;;;;;;3.65;1.17;;;;;;;;;;5133642;27;20054;-60
2023/08/12 13:50:27;;;;;;;1.50;1.08;;;;;;;;;;5133952;27;20381;-62
2023/08/12 13:52:55;;;;;;;7.55;2.10;;;;;;;;;;5133742;27;20054;-61
2023/08/12 13:55:22;;;;;;;162.70;12.80;;;;;;;;;;5133291;27;20078;-61
2023/08/12 13:57:49;;;;;;;131.02;11.23;;;;;;;;;;5133623;27;20051;-64
2023/08/12 14:00:16;;;;;;;46.88;6.85;;;;;;;;;;5133272;27;20048;-63
2023/08/12 14:02:43;;;;;;;8.25;5.38;;;;;;;;;;5133471;27;20058;-63
2023/08/12 14:05:11;;;;;;;9.52;6.55;;;;;;;;;;5133386;27;20161;-63
2023/08/12 14:07:37;;;;;;;13.35;8.18;;;;;;;;;;5133202;27;20153;-62
2023/08/12 14:10:06;;;;;;;6.72;5.80;;;;;;;;;;5133312;27;20411;-63
2023/08/12 14:12:33;;;;;;;11.38;6.45;;;;;;;;;;5133224;27;20051;-63
2023/08/12 14:15:00;;;;;;;9.90;7.63;;;;;;;;;;5133216;27;20055;-64
2023/08/12 14:17:27;;;;;;;9.65;6.97;;;;;;;;;;5133211;27;20062;-65
2023/08/12 14:19:54;;;;;;;8.88;6.78;;;;;;;;;;5133281;27;20399;-62
2023/08/12 14:22:21;;;;;;;9.73;7.50;;;;;;;;;;5132990;27;20051;-62
2023/08/12 14:24:49;;;;;;;10.73;7.55;;;;;;;;;;5133342;27;20058;-63
2023/08/12 14:27:17;;;;;;;8.77;7.20;;;;;;;;;;5132589;27;20055;-65
2023/08/12 14:29:44;;;;;;;9.75;7.03;;;;;;;;;;5133301;27;20058;-62
2023/08/12 14:32:11;;;;;;;7.00;6.18;;;;;;;;;;5133258;27;20062;-64
2023/08/12 14:34:38;;;;;;;8.95;6.97;;;;;;;;;;5132997;27;20149;-64
2023/08/12 14:37:07;;;;;;;8.57;7.32;;;;;;;;;;5133050;27;20047;-65